createdAt,value
2024-02-26T00:00:47.705Z,-0.7
2024-02-26T00:01:49.658Z,-0.7
2024-02-26T00:02:51.348Z,-0.7
2024-02-26T00:03:53.503Z,-0.6
2024-02-26T00:04:55.505Z,-0.6
2024-02-26T00:05:57.462Z,-0.6
2024-02-26T00:07:00.012Z,-0.5
2024-02-26T00:08:06.036Z,-0.5
2024-02-26T00:09:07.896Z,-0.5
2024-02-26T00:10:10.075Z,-0.5
2024-02-26T00:11:11.987Z,-0.5
2024-02-26T00:12:14.187Z,-0.4
2024-02-26T00:13:16.387Z,-0.4
2024-02-26T00:14:17.931Z,-0.4
2024-02-26T00:15:19.726Z,-0.3
2024-02-26T00:16:21.800Z,-0.3
2024-02-26T00:17:23.359Z,-0.3
2024-02-26T00:18:25.264Z,-0.3
2024-02-26T00:19:27.681Z,-0.3
2024-02-26T00:20:30.532Z,-0.2
2024-02-26T00:21:32.181Z,-0.2
2024-02-26T00:22:33.739Z,-0.2
2024-02-26T00:23:35.281Z,-0.2
2024-02-26T00:24:36.803Z,-0.2
2024-02-26T00:25:38.341Z,-0.2
2024-02-26T00:26:40.039Z,-0.2
2024-02-26T00:27:42.309Z,-0.1
2024-02-26T00:28:44.203Z,-0.1
2024-02-26T00:29:46.129Z,-0.1
2024-02-26T00:30:48.173Z,-0.1
2024-02-26T00:31:49.710Z,-0.1
2024-02-26T00:32:51.373Z,-0.1
2024-02-26T00:33:54.592Z,-0.1
2024-02-26T00:34:57.325Z,-0.1
2024-02-26T00:35:59.728Z,-0.1
2024-02-26T00:37:01.807Z,-0.1
2024-02-26T00:38:03.385Z,-0.1
2024-02-26T00:39:05.355Z,-0.1
2024-02-26T00:40:07.521Z,0
2024-02-26T00:41:09.508Z,0
2024-02-26T00:42:11.049Z,0
2024-02-26T00:43:13.266Z,0
2024-02-26T00:44:15.168Z,0.1
2024-02-26T00:45:16.725Z,0.1
2024-02-26T00:46:19.525Z,0.1
2024-02-26T00:47:21.072Z,0.1
2024-02-26T00:48:23.140Z,0.1
2024-02-26T00:49:25.764Z,0.2
2024-02-26T00:50:27.844Z,0.2
2024-02-26T00:51:29.694Z,0.2
2024-02-26T00:52:32.024Z,0.3
2024-02-26T00:53:33.772Z,0.3
2024-02-26T00:54:35.388Z,0.3
2024-02-26T00:55:36.930Z,0.3
2024-02-26T00:56:38.514Z,0.4
2024-02-26T00:57:40.622Z,0.4
2024-02-26T00:58:42.197Z,0.5
2024-02-26T00:59:44.072Z,0.5
2024-02-26T01:00:46.032Z,0.6
2024-02-26T01:01:48.068Z,0.6
2024-02-26T01:02:50.267Z,0.6
2024-02-26T01:03:53.042Z,0.7
2024-02-26T01:04:55.672Z,0.7
2024-02-26T01:06:00.145Z,0.7
2024-02-26T01:07:03.549Z,0.8
2024-02-26T01:08:07.094Z,0.8
2024-02-26T01:09:09.601Z,0.8
2024-02-26T01:10:11.954Z,0.9
2024-02-26T01:11:13.558Z,0.9
2024-02-26T01:12:15.946Z,0.9
2024-02-26T01:13:18.182Z,1
2024-02-26T01:14:19.748Z,1
2024-02-26T01:15:21.466Z,1
2024-02-26T01:16:23.423Z,1.1
2024-02-26T01:17:25.121Z,1.1
2024-02-26T01:18:27.681Z,1.1
2024-02-26T01:19:30.471Z,1.1
2024-02-26T01:20:32.741Z,1.2
2024-02-26T01:21:34.260Z,1.2
2024-02-26T01:22:35.967Z,1.2
2024-02-26T01:23:37.809Z,1.3
2024-02-26T01:24:40.238Z,1.3
2024-02-26T01:25:41.722Z,1.3
2024-02-26T01:26:43.644Z,1.3
2024-02-26T01:27:45.576Z,1.3
2024-02-26T01:28:47.093Z,1.3
2024-02-26T01:29:48.797Z,1.3
2024-02-26T01:30:50.788Z,1.3
2024-02-26T01:31:52.391Z,1.3
2024-02-26T01:32:54.460Z,1.3
2024-02-26T01:33:57.227Z,1.3
2024-02-26T01:35:00.143Z,1.3
2024-02-26T01:36:01.811Z,1.3
2024-02-26T01:37:04.215Z,1.3
2024-02-26T01:38:05.750Z,1.3
2024-02-26T01:39:07.482Z,1.3
2024-02-26T01:40:09.662Z,1.2
2024-02-26T01:41:11.498Z,1.2
2024-02-26T01:42:13.130Z,1.2
2024-02-26T01:43:15.334Z,1.2
2024-02-26T01:44:16.940Z,1.2
2024-02-26T01:45:18.586Z,1.2
2024-02-26T01:46:21.022Z,1.2
2024-02-26T01:47:23.140Z,1.2
2024-02-26T01:48:25.005Z,1.2
2024-02-26T01:49:27.577Z,1.2
2024-02-26T01:50:29.998Z,1.2
2024-02-26T01:51:31.505Z,1.1
2024-02-26T01:52:33.136Z,1.1
2024-02-26T01:53:34.719Z,1.1
2024-02-26T01:54:36.345Z,1.1
2024-02-26T01:55:37.948Z,1.1
2024-02-26T01:56:39.684Z,1.1
2024-02-26T01:57:41.520Z,1
2024-02-26T01:58:43.264Z,1
2024-02-26T01:59:44.912Z,1
2024-02-26T02:00:47.824Z,1
2024-02-26T02:01:50.165Z,0.9
2024-02-26T02:02:51.822Z,0.9
2024-02-26T02:03:54.229Z,0.9
2024-02-26T02:04:56.290Z,0.9
2024-02-26T02:05:58.287Z,0.9
2024-02-26T02:07:01.037Z,0.9
2024-02-26T02:08:03.617Z,0.9
2024-02-26T02:09:05.314Z,0.9
2024-02-26T02:10:07.164Z,0.9
2024-02-26T02:11:08.912Z,0.9
2024-02-26T02:12:11.177Z,0.9
2024-02-26T02:13:13.283Z,0.9
2024-02-26T02:14:14.745Z,0.9
2024-02-26T02:15:16.409Z,0.9
2024-02-26T02:16:18.638Z,0.9
2024-02-26T02:17:20.190Z,0.9
2024-02-26T02:18:21.863Z,0.9
2024-02-26T02:19:24.535Z,0.9
2024-02-26T02:20:26.403Z,0.9
2024-02-26T02:21:28.036Z,0.9
2024-02-26T02:22:30.193Z,0.9
2024-02-26T02:23:31.707Z,0.9
2024-02-26T02:24:33.391Z,0.9
2024-02-26T02:25:35.129Z,0.9
2024-02-26T02:26:36.599Z,0.8
2024-02-26T02:27:38.501Z,0.8
2024-02-26T02:28:40.056Z,0.8
2024-02-26T02:29:41.802Z,0.8
2024-02-26T02:30:43.649Z,0.8
2024-02-26T02:31:45.221Z,0.8
2024-02-26T02:32:47.229Z,0.8
2024-02-26T02:33:49.827Z,0.8
2024-02-26T02:34:53.030Z,0.8
2024-02-26T02:35:55.401Z,0.9
2024-02-26T02:36:57.854Z,0.9
2024-02-26T02:37:59.463Z,0.9
2024-02-26T02:39:01.435Z,0.9
2024-02-26T02:40:03.590Z,0.9
2024-02-26T02:41:05.339Z,0.9
2024-02-26T02:42:07.146Z,0.9
2024-02-26T02:43:09.120Z,0.9
2024-02-26T02:44:10.702Z,1
2024-02-26T02:45:12.425Z,1
2024-02-26T02:46:14.682Z,1
2024-02-26T02:47:16.461Z,1
2024-02-26T02:48:18.534Z,1
2024-02-26T02:49:21.089Z,1.1
2024-02-26T02:50:23.628Z,1.1
2024-02-26T02:51:25.402Z,1.1
2024-02-26T02:52:27.377Z,1.2
2024-02-26T02:53:28.918Z,1.3
2024-02-26T02:54:30.723Z,1.3
2024-02-26T02:55:32.912Z,1.4
2024-02-26T02:56:34.490Z,1.4
2024-02-26T02:57:36.218Z,1.5
2024-02-26T02:58:37.818Z,1.5
2024-02-26T02:59:39.578Z,1.5
2024-02-26T03:00:42.332Z,1.6
2024-02-26T03:01:44.638Z,1.6
2024-02-26T03:02:46.600Z,1.7
2024-02-26T03:03:48.702Z,1.7
2024-02-26T03:04:50.723Z,1.8
2024-02-26T03:05:52.914Z,1.8
2024-02-26T03:06:55.312Z,1.9
2024-02-26T03:07:57.532Z,1.9
2024-02-26T03:08:59.098Z,1.9
2024-02-26T03:10:00.924Z,2
2024-02-26T03:11:02.863Z,2
2024-02-26T03:12:04.934Z,2
2024-02-26T03:13:07.035Z,2.1
2024-02-26T03:14:08.737Z,2.1
2024-02-26T03:15:10.429Z,2.1
2024-02-26T03:16:12.736Z,2.1
2024-02-26T03:17:14.845Z,2.2
2024-02-26T03:18:16.627Z,2.2
2024-02-26T03:19:19.562Z,2.2
2024-02-26T03:20:22.005Z,2.2
2024-02-26T03:21:23.839Z,2.3
2024-02-26T03:22:25.800Z,2.3
2024-02-26T03:23:27.481Z,2.3
2024-02-26T03:24:29.197Z,2.3
2024-02-26T03:25:31.265Z,2.3
2024-02-26T03:26:32.779Z,2.3
2024-02-26T03:27:34.400Z,2.4
2024-02-26T03:28:35.927Z,2.4
2024-02-26T03:29:37.430Z,2.4
2024-02-26T03:30:38.931Z,2.4
2024-02-26T03:31:40.500Z,2.4
2024-02-26T03:32:42.286Z,2.4
2024-02-26T03:33:45.308Z,2.4
2024-02-26T03:34:48.326Z,2.5
2024-02-26T03:35:50.947Z,2.5
2024-02-26T03:36:52.998Z,2.5
2024-02-26T03:37:54.465Z,2.5
2024-02-26T03:38:56.020Z,2.5
2024-02-26T03:39:58.156Z,2.5
2024-02-26T03:40:59.990Z,2.5
2024-02-26T03:42:02.072Z,2.6
2024-02-26T03:43:04.130Z,2.6
2024-02-26T03:44:05.676Z,2.6
2024-02-26T03:45:07.547Z,2.6
2024-02-26T03:46:09.785Z,2.6
2024-02-26T03:47:11.395Z,2.6
2024-02-26T03:48:13.333Z,2.6
2024-02-26T03:49:16.372Z,2.6
2024-02-26T03:50:18.629Z,2.6
2024-02-26T03:51:20.397Z,2.6
2024-02-26T03:52:22.526Z,2.7
2024-02-26T03:53:24.078Z,2.7
2024-02-26T03:54:25.796Z,2.7
2024-02-26T03:55:27.974Z,2.7
2024-02-26T03:56:29.522Z,2.7
2024-02-26T03:57:31.069Z,2.7
2024-02-26T03:58:32.772Z,2.7
2024-02-26T03:59:34.364Z,2.7
2024-02-26T04:00:36.136Z,2.7
2024-02-26T04:01:38.841Z,2.7
2024-02-26T04:02:40.568Z,2.7
2024-02-26T04:03:42.953Z,2.7
2024-02-26T04:04:44.762Z,2.8
2024-02-26T04:05:47.632Z,2.8
2024-02-26T04:06:50.272Z,2.8
2024-02-26T04:07:52.532Z,2.8
2024-02-26T04:08:54.166Z,2.8
2024-02-26T04:09:55.969Z,2.8
2024-02-26T04:10:57.540Z,2.8
2024-02-26T04:11:59.712Z,2.8
2024-02-26T04:13:01.759Z,2.8
2024-02-26T04:14:03.420Z,2.8
2024-02-26T04:15:05.326Z,2.8
2024-02-26T04:16:07.540Z,2.8
2024-02-26T04:17:09.050Z,2.8
2024-02-26T04:18:11.406Z,2.8
2024-02-26T04:19:14.679Z,2.8
2024-02-26T04:20:17.369Z,2.8
2024-02-26T04:21:19.453Z,2.8
2024-02-26T04:22:21.666Z,2.8
2024-02-26T04:23:24.025Z,2.8
2024-02-26T04:24:25.692Z,2.8
2024-02-26T04:25:27.889Z,2.8
2024-02-26T04:26:29.474Z,2.8
2024-02-26T04:27:31.024Z,2.8
2024-02-26T04:28:32.738Z,2.8
2024-02-26T04:29:34.515Z,2.8
2024-02-26T04:30:36.071Z,2.8
2024-02-26T04:31:38.242Z,2.8
2024-02-26T04:32:40.007Z,2.8
2024-02-26T04:33:42.618Z,2.8
2024-02-26T04:34:45.330Z,2.8
2024-02-26T04:35:47.518Z,2.8
2024-02-26T04:36:49.707Z,2.8
2024-02-26T04:37:51.317Z,2.9
2024-02-26T04:38:53.012Z,2.9
2024-02-26T04:39:55.210Z,2.9
2024-02-26T04:40:56.737Z,2.9
2024-02-26T04:41:58.467Z,2.9
2024-02-26T04:43:00.130Z,2.9
2024-02-26T04:44:01.924Z,2.9
2024-02-26T04:45:03.664Z,2.8
2024-02-26T04:46:05.788Z,2.8
2024-02-26T04:47:07.453Z,2.8
2024-02-26T04:48:09.548Z,2.8
2024-02-26T04:49:12.774Z,2.8
2024-02-26T04:50:15.359Z,2.8
2024-02-26T04:51:17.141Z,2.8
2024-02-26T04:52:19.727Z,2.8
2024-02-26T04:53:27.101Z,2.8
2024-02-26T04:54:28.986Z,2.8
2024-02-26T04:55:31.135Z,2.8
2024-02-26T04:56:32.714Z,2.8
2024-02-26T04:57:35.029Z,2.8
2024-02-26T04:58:36.791Z,2.8
2024-02-26T04:59:38.275Z,2.8
2024-02-26T05:00:40.220Z,2.8
2024-02-26T05:01:42.221Z,2.8
2024-02-26T05:02:45.393Z,2.8
2024-02-26T05:03:48.256Z,2.8
2024-02-26T05:04:50.398Z,2.8
2024-02-26T05:05:52.107Z,2.8
2024-02-26T05:06:55.216Z,2.8
2024-02-26T05:07:58.184Z,2.8
2024-02-26T05:08:59.908Z,2.8
2024-02-26T05:10:02.075Z,2.8
2024-02-26T05:11:03.776Z,2.7
2024-02-26T05:12:06.038Z,2.7
2024-02-26T05:13:08.356Z,2.7
2024-02-26T05:14:09.998Z,2.7
2024-02-26T05:15:11.841Z,2.7
2024-02-26T05:16:14.047Z,2.7
2024-02-26T05:17:15.553Z,2.7
2024-02-26T05:18:17.609Z,2.7
2024-02-26T05:19:20.704Z,2.6
2024-02-26T05:20:23.053Z,2.6
2024-02-26T05:21:24.674Z,2.6
2024-02-26T05:22:27.158Z,2.6
2024-02-26T05:23:28.765Z,2.5
2024-02-26T05:24:30.519Z,2.5
2024-02-26T05:25:32.744Z,2.5
2024-02-26T05:26:34.271Z,2.5
2024-02-26T05:27:35.785Z,2.5
2024-02-26T05:28:37.388Z,2.5
2024-02-26T05:29:39.415Z,2.5
2024-02-26T05:30:41.281Z,2.5
2024-02-26T05:31:43.273Z,2.4
2024-02-26T05:32:45.207Z,2.4
2024-02-26T05:33:48.327Z,2.4
2024-02-26T05:34:50.649Z,2.4
2024-02-26T05:35:52.703Z,2.4
2024-02-26T05:36:54.905Z,2.4
2024-02-26T05:37:56.678Z,2.4
2024-02-26T05:38:58.459Z,2.4
2024-02-26T05:40:00.481Z,2.4
2024-02-26T05:41:02.155Z,2.4
2024-02-26T05:42:03.731Z,2.4
2024-02-26T05:43:05.684Z,2.4
2024-02-26T05:44:07.289Z,2.3
2024-02-26T05:45:08.971Z,2.3
2024-02-26T05:46:11.119Z,2.4
2024-02-26T05:47:12.850Z,2.4
2024-02-26T05:48:14.821Z,2.4
2024-02-26T05:49:17.568Z,2.4
2024-02-26T05:50:20.067Z,2.4
2024-02-26T05:51:21.720Z,2.4
2024-02-26T05:52:27.148Z,2.4
2024-02-26T05:53:28.789Z,2.4
2024-02-26T05:54:30.643Z,2.4
2024-02-26T05:55:32.788Z,2.4
2024-02-26T05:56:34.368Z,2.4
2024-02-26T05:57:37.136Z,2.4
2024-02-26T05:58:39.055Z,2.4
2024-02-26T05:59:40.600Z,2.4
2024-02-26T06:00:42.776Z,2.4
2024-02-26T06:01:45.561Z,2.4
2024-02-26T06:02:47.247Z,2.4
2024-02-26T06:03:49.511Z,2.4
2024-02-26T06:04:51.748Z,2.4
2024-02-26T06:05:53.655Z,2.4
2024-02-26T06:06:56.318Z,2.5
2024-02-26T06:07:58.180Z,2.5
2024-02-26T06:09:00.336Z,2.5
2024-02-26T06:10:02.513Z,2.5
2024-02-26T06:11:04.100Z,2.5
2024-02-26T06:12:06.372Z,2.5
2024-02-26T06:13:08.316Z,2.5
2024-02-26T06:14:10.038Z,2.5
2024-02-26T06:15:12.054Z,2.6
2024-02-26T06:16:14.389Z,2.6
2024-02-26T06:17:15.934Z,2.6
2024-02-26T06:18:17.911Z,2.6
2024-02-26T06:19:20.457Z,2.6
2024-02-26T06:20:23.048Z,2.6
2024-02-26T06:21:24.976Z,2.6
2024-02-26T06:22:27.226Z,2.6
2024-02-26T06:23:28.697Z,2.6
2024-02-26T06:24:30.428Z,2.6
2024-02-26T06:25:32.641Z,2.6
2024-02-26T06:26:34.440Z,2.7
2024-02-26T06:27:36.050Z,2.7
2024-02-26T06:28:37.675Z,2.7
2024-02-26T06:29:39.193Z,2.7
2024-02-26T06:30:40.889Z,2.7
2024-02-26T06:31:43.134Z,2.8
2024-02-26T06:32:45.083Z,2.8
2024-02-26T06:33:48.290Z,2.8
2024-02-26T06:34:51.187Z,2.8
2024-02-26T06:35:53.908Z,2.9
2024-02-26T06:36:55.816Z,2.9
2024-02-26T06:37:57.466Z,2.9
2024-02-26T06:38:59.177Z,2.9
2024-02-26T06:40:01.276Z,2.9
2024-02-26T06:41:03.319Z,3
2024-02-26T06:42:04.909Z,3
2024-02-26T06:43:07.186Z,3
2024-02-26T06:44:08.912Z,3
2024-02-26T06:45:10.576Z,3
2024-02-26T06:46:12.775Z,3
2024-02-26T06:47:14.258Z,3
2024-02-26T06:48:16.033Z,3.1
2024-02-26T06:49:18.753Z,3.1
2024-02-26T06:50:21.378Z,3.1
2024-02-26T06:51:23.195Z,3.1
2024-02-26T06:52:25.960Z,3.2
2024-02-26T06:53:27.614Z,3.2
2024-02-26T06:54:29.486Z,3.2
2024-02-26T06:55:31.758Z,3.2
2024-02-26T06:56:33.386Z,3.2
2024-02-26T06:57:34.985Z,3.3
2024-02-26T06:58:37.023Z,3.3
2024-02-26T06:59:39.266Z,3.3
2024-02-26T07:00:41.724Z,3.3
2024-02-26T07:01:44.702Z,3.3
2024-02-26T07:02:46.519Z,3.3
2024-02-26T07:03:49.430Z,3.3
2024-02-26T07:04:51.935Z,3.4
2024-02-26T07:05:53.869Z,3.4
2024-02-26T07:06:56.509Z,3.4
2024-02-26T07:07:58.832Z,3.4
2024-02-26T07:09:00.581Z,3.4
2024-02-26T07:10:02.700Z,3.4
2024-02-26T07:11:04.366Z,3.4
2024-02-26T07:12:06.514Z,3.4
2024-02-26T07:13:08.333Z,3.4
2024-02-26T07:14:09.866Z,3.4
2024-02-26T07:15:11.712Z,3.5
2024-02-26T07:16:13.938Z,3.5
2024-02-26T07:17:15.450Z,3.5
2024-02-26T07:18:17.607Z,3.5
2024-02-26T07:19:20.343Z,3.5
2024-02-26T07:20:23.035Z,3.5
2024-02-26T07:21:24.777Z,3.5
2024-02-26T07:22:27.118Z,3.5
2024-02-26T07:23:28.586Z,3.5
2024-02-26T07:24:30.290Z,3.5
2024-02-26T07:25:32.381Z,3.5
2024-02-26T07:26:33.919Z,3.6
2024-02-26T07:27:35.769Z,3.6
2024-02-26T07:28:37.360Z,3.6
2024-02-26T07:29:39.121Z,3.6
2024-02-26T07:30:40.653Z,3.6
2024-02-26T07:31:42.318Z,3.6
2024-02-26T07:32:49.078Z,3.6
2024-02-26T07:33:53.750Z,3.7
2024-02-26T07:34:56.716Z,3.7
2024-02-26T07:35:58.841Z,3.7
2024-02-26T07:37:00.830Z,3.7
2024-02-26T07:38:02.522Z,3.7
2024-02-26T07:39:04.304Z,3.7
2024-02-26T07:40:06.456Z,3.8
2024-02-26T07:41:08.028Z,3.8
2024-02-26T07:42:10.050Z,3.8
2024-02-26T07:43:12.507Z,3.8
2024-02-26T07:44:14.071Z,3.8
2024-02-26T07:45:15.897Z,3.8
2024-02-26T07:46:18.192Z,3.8
2024-02-26T07:47:19.780Z,3.9
2024-02-26T07:48:21.555Z,3.9
2024-02-26T07:49:24.429Z,3.9
2024-02-26T07:50:26.811Z,3.9
2024-02-26T07:51:28.657Z,4
2024-02-26T07:52:30.852Z,4
2024-02-26T07:53:32.330Z,4
2024-02-26T07:54:33.998Z,4
2024-02-26T07:55:36.478Z,4
2024-02-26T07:56:37.969Z,4.1
2024-02-26T07:57:39.461Z,4.1
2024-02-26T07:58:41.147Z,4.1
2024-02-26T07:59:42.898Z,4.2
2024-02-26T08:00:45.300Z,4.2
2024-02-26T08:01:53.933Z,4.2
2024-02-26T08:03:01.302Z,4.2
2024-02-26T08:04:04.741Z,4.3
2024-02-26T08:05:07.382Z,4.3
2024-02-26T08:06:09.333Z,4.3
2024-02-26T08:07:12.095Z,4.3
2024-02-26T08:08:14.429Z,4.4
2024-02-26T08:09:16.670Z,4.4
2024-02-26T08:10:18.676Z,4.4
2024-02-26T08:11:20.400Z,4.4
2024-02-26T08:12:22.627Z,4.4
2024-02-26T08:13:24.644Z,4.5
2024-02-26T08:14:26.971Z,4.5
2024-02-26T08:15:28.867Z,4.5
2024-02-26T08:16:34.767Z,4.5
2024-02-26T08:17:39.194Z,4.5
2024-02-26T08:18:41.639Z,4.5
2024-02-26T08:19:44.249Z,4.5
2024-02-26T08:20:46.719Z,4.6
2024-02-26T08:21:48.628Z,4.6
2024-02-26T08:22:50.203Z,4.6
2024-02-26T08:23:51.885Z,4.6
2024-02-26T08:24:53.764Z,4.6
2024-02-26T08:25:55.305Z,4.6
2024-02-26T08:26:56.925Z,4.6
2024-02-26T08:27:58.931Z,4.7
2024-02-26T08:29:00.465Z,4.7
2024-02-26T08:30:02.555Z,4.7
2024-02-26T08:31:04.960Z,4.7
2024-02-26T08:32:06.753Z,4.7
2024-02-26T08:33:08.918Z,4.8
2024-02-26T08:34:11.809Z,4.8
2024-02-26T08:35:14.710Z,4.8
2024-02-26T08:36:16.983Z,4.8
2024-02-26T08:37:19.275Z,4.8
2024-02-26T08:38:20.973Z,4.8
2024-02-26T08:39:22.601Z,4.8
2024-02-26T08:40:24.717Z,4.8
2024-02-26T08:41:26.275Z,4.8
2024-02-26T08:42:27.956Z,4.8
2024-02-26T08:43:30.026Z,4.8
2024-02-26T08:44:31.663Z,4.8
2024-02-26T08:45:33.804Z,4.9
2024-02-26T08:46:36.440Z,4.9
2024-02-26T08:47:38.237Z,4.9
2024-02-26T08:48:40.976Z,4.9
2024-02-26T08:49:44.512Z,4.9
2024-02-26T08:50:47.051Z,4.9
2024-02-26T08:51:48.883Z,4.9
2024-02-26T08:52:50.355Z,4.9
2024-02-26T08:53:52.044Z,4.9
2024-02-26T08:54:54.062Z,5
2024-02-26T08:55:55.546Z,5
2024-02-26T08:56:57.866Z,5
2024-02-26T08:58:00.596Z,5
2024-02-26T08:59:02.109Z,5
2024-02-26T09:00:03.863Z,5
2024-02-26T09:01:06.199Z,5
2024-02-26T09:02:08.871Z,5
2024-02-26T09:03:10.609Z,5
2024-02-26T09:04:12.953Z,5.1
2024-02-26T09:05:15.044Z,5.1
2024-02-26T09:06:16.889Z,5.1
2024-02-26T09:07:19.790Z,5.1
2024-02-26T09:08:21.651Z,5.1
2024-02-26T09:09:23.388Z,5.1
2024-02-26T09:10:25.346Z,5.1
2024-02-26T09:11:27.031Z,5.1
2024-02-26T09:12:29.181Z,5.1
2024-02-26T09:13:31.490Z,5.1
2024-02-26T09:14:33.158Z,5.1
2024-02-26T09:15:35.250Z,5.1
2024-02-26T09:16:37.380Z,5.1
2024-02-26T09:17:38.998Z,5.1
2024-02-26T09:18:41.684Z,5.1
2024-02-26T09:19:44.735Z,5.2
2024-02-26T09:20:47.098Z,5.2
2024-02-26T09:21:49.156Z,5.2
2024-02-26T09:22:50.655Z,5.2
2024-02-26T09:23:52.308Z,5.2
2024-02-26T09:24:54.858Z,5.2
2024-02-26T09:25:56.364Z,5.2
2024-02-26T09:26:57.990Z,5.2
2024-02-26T09:27:59.862Z,5.3
2024-02-26T09:29:01.581Z,5.3
2024-02-26T09:30:03.825Z,5.3
2024-02-26T09:31:06.425Z,5.3
2024-02-26T09:32:08.503Z,5.4
2024-02-26T09:33:10.225Z,5.4
2024-02-26T09:34:13.115Z,5.5
2024-02-26T09:35:15.730Z,5.5
2024-02-26T09:36:18.945Z,5.5
2024-02-26T09:37:22.900Z,5.6
2024-02-26T09:38:24.703Z,5.6
2024-02-26T09:39:26.414Z,5.6
2024-02-26T09:40:28.645Z,5.6
2024-02-26T09:41:30.256Z,5.7
2024-02-26T09:42:31.994Z,5.7
2024-02-26T09:43:34.139Z,5.7
2024-02-26T09:44:35.651Z,5.7
2024-02-26T09:45:37.334Z,5.8
2024-02-26T09:46:39.599Z,5.8
2024-02-26T09:47:41.878Z,5.9
2024-02-26T09:48:44.398Z,5.9
2024-02-26T09:49:47.321Z,5.9
2024-02-26T09:50:49.819Z,6
2024-02-26T09:51:51.866Z,6
2024-02-26T09:52:53.409Z,6.1
2024-02-26T09:53:55.456Z,6.1
2024-02-26T09:54:57.435Z,6.2
2024-02-26T09:55:59.272Z,6.2
2024-02-26T09:57:05.198Z,6.3
2024-02-26T09:58:08.433Z,6.4
2024-02-26T09:59:10.999Z,6.4
2024-02-26T10:00:12.769Z,6.4
2024-02-26T10:01:15.233Z,6.5
2024-02-26T10:02:17.647Z,6.5
2024-02-26T10:03:19.527Z,6.5
2024-02-26T10:04:21.762Z,6.6
2024-02-26T10:05:24.200Z,6.6
2024-02-26T10:06:26.198Z,6.7
2024-02-26T10:07:28.787Z,6.7
2024-02-26T10:08:30.599Z,6.7
2024-02-26T10:09:32.461Z,6.8
2024-02-26T10:10:34.646Z,6.8
2024-02-26T10:11:37.865Z,6.8
2024-02-26T10:12:40.386Z,6.9
2024-02-26T10:13:42.097Z,6.9
2024-02-26T10:14:44.220Z,6.9
2024-02-26T10:15:46.561Z,6.9
2024-02-26T10:16:48.382Z,7
2024-02-26T10:17:50.465Z,7
2024-02-26T10:19:00.360Z,7
2024-02-26T10:20:04.079Z,7.1
2024-02-26T10:21:07.168Z,7.1
2024-02-26T10:22:08.889Z,7.1
2024-02-26T10:23:10.663Z,7.1
2024-02-26T10:24:12.414Z,7.1
2024-02-26T10:25:14.318Z,7.1
2024-02-26T10:26:15.962Z,7.1
2024-02-26T10:27:18.148Z,7
2024-02-26T10:28:20.337Z,7
2024-02-26T10:29:22.052Z,7
2024-02-26T10:30:24.491Z,7
2024-02-26T10:31:27.020Z,7
2024-02-26T10:32:28.577Z,7
2024-02-26T10:33:36.883Z,7
2024-02-26T10:34:45.858Z,6.9
2024-02-26T10:35:48.769Z,6.9
2024-02-26T10:36:55.042Z,6.9
2024-02-26T10:37:58.390Z,6.9
2024-02-26T10:39:00.126Z,6.9
2024-02-26T10:40:02.031Z,6.9
2024-02-26T10:41:03.631Z,6.9
2024-02-26T10:42:05.324Z,6.9
2024-02-26T10:43:07.384Z,6.9
2024-02-26T10:44:09.141Z,6.9
2024-02-26T10:45:10.902Z,6.9
2024-02-26T10:46:13.597Z,6.9
2024-02-26T10:47:15.576Z,6.9
2024-02-26T10:48:17.487Z,6.9
2024-02-26T10:49:21.490Z,6.9
2024-02-26T10:50:25.436Z,6.9
2024-02-26T10:51:27.268Z,6.9
2024-02-26T10:52:29.975Z,7
2024-02-26T10:53:31.685Z,7
2024-02-26T10:54:34.215Z,7
2024-02-26T10:55:36.754Z,7
2024-02-26T10:56:38.788Z,7
2024-02-26T10:57:41.014Z,7
2024-02-26T10:58:44.452Z,7
2024-02-26T10:59:46.353Z,7
2024-02-26T11:00:49.212Z,7
2024-02-26T11:01:52.493Z,7
2024-02-26T11:02:54.969Z,7
2024-02-26T11:03:57.040Z,7
2024-02-26T11:04:59.471Z,7
2024-02-26T11:06:04.658Z,7
2024-02-26T11:07:11.649Z,7
2024-02-26T11:08:14.261Z,7
2024-02-26T11:09:16.091Z,7
2024-02-26T11:10:18.567Z,7
2024-02-26T11:11:20.286Z,7
2024-02-26T11:12:22.444Z,7
2024-02-26T11:13:24.533Z,7
2024-02-26T11:14:26.419Z,7
2024-02-26T11:15:28.829Z,7
2024-02-26T11:16:31.008Z,7
2024-02-26T11:17:32.919Z,7
2024-02-26T11:18:35.411Z,7
2024-02-26T11:19:39.062Z,7
2024-02-26T11:20:41.706Z,7
2024-02-26T11:21:43.860Z,7
2024-02-26T11:22:45.869Z,7
2024-02-26T11:23:47.897Z,7
2024-02-26T11:24:49.745Z,7
2024-02-26T11:25:51.370Z,7
2024-02-26T11:26:53.114Z,7
2024-02-26T11:27:55.173Z,7
2024-02-26T11:28:59.421Z,7
2024-02-26T11:30:01.781Z,7
2024-02-26T11:31:04.373Z,7
2024-02-26T11:32:05.902Z,7
2024-02-26T11:33:07.820Z,7
2024-02-26T11:34:10.977Z,7
2024-02-26T11:35:14.109Z,7
2024-02-26T11:36:16.690Z,7.1
2024-02-26T11:37:19.932Z,7.1
2024-02-26T11:38:21.459Z,7.1
2024-02-26T11:39:23.507Z,7.1
2024-02-26T11:40:25.612Z,7.1
2024-02-26T11:41:27.255Z,7.1
2024-02-26T11:42:28.897Z,7.1
2024-02-26T11:43:31.366Z,7.1
2024-02-26T11:44:32.869Z,7.2
2024-02-26T11:45:34.737Z,7.2
2024-02-26T11:46:36.803Z,7.2
2024-02-26T11:47:38.584Z,7.2
2024-02-26T11:48:41.246Z,7.2
2024-02-26T11:49:44.064Z,7.2
2024-02-26T11:50:46.567Z,7.2
2024-02-26T11:51:48.788Z,7.2
2024-02-26T11:52:50.726Z,7.2
2024-02-26T11:53:52.413Z,7.2
2024-02-26T11:54:55.186Z,7.2
2024-02-26T11:55:56.878Z,7.2
2024-02-26T11:56:58.598Z,7.2
2024-02-26T11:58:00.532Z,7.2
2024-02-26T11:59:02.212Z,7.2
2024-02-26T12:00:05.371Z,7.2
2024-02-26T12:01:07.843Z,7.2
2024-02-26T12:02:09.775Z,7.2
2024-02-26T12:03:11.293Z,7.2
2024-02-26T12:04:13.296Z,7.2
2024-02-26T12:05:15.424Z,7.2
2024-02-26T12:06:17.810Z,7.2
2024-02-26T12:07:20.319Z,7.2
2024-02-26T12:08:22.773Z,7.2
2024-02-26T12:09:24.563Z,7.2
2024-02-26T12:10:27.360Z,7.2
2024-02-26T12:11:29.195Z,7.2
2024-02-26T12:12:31.379Z,7.2
2024-02-26T12:13:33.516Z,7.2
2024-02-26T12:14:35.366Z,7.2
2024-02-26T12:15:37.618Z,7.2
2024-02-26T12:16:39.963Z,7.2
2024-02-26T12:17:41.825Z,7.2
2024-02-26T12:18:44.058Z,7.3
2024-02-26T12:19:46.533Z,7.3
2024-02-26T12:20:48.866Z,7.3
2024-02-26T12:21:50.806Z,7.3
2024-02-26T12:22:52.774Z,7.3
2024-02-26T12:23:54.861Z,7.3
2024-02-26T12:24:56.962Z,7.3
2024-02-26T12:25:58.821Z,7.3
2024-02-26T12:27:00.464Z,7.3
2024-02-26T12:28:02.757Z,7.4
2024-02-26T12:29:04.270Z,7.4
2024-02-26T12:30:05.843Z,7.4
2024-02-26T12:31:08.057Z,7.4
2024-02-26T12:32:10.057Z,7.4
2024-02-26T12:33:11.778Z,7.5
2024-02-26T12:34:14.439Z,7.5
2024-02-26T12:35:17.188Z,7.5
2024-02-26T12:36:19.530Z,7.6
2024-02-26T12:37:21.604Z,7.6
2024-02-26T12:38:23.837Z,7.6
2024-02-26T12:39:28.912Z,7.6
2024-02-26T12:40:31.361Z,7.6
2024-02-26T12:41:33.367Z,7.7
2024-02-26T12:42:35.030Z,7.7
2024-02-26T12:43:37.081Z,7.7
2024-02-26T12:44:38.652Z,7.7
2024-02-26T12:45:40.396Z,7.7
2024-02-26T12:46:42.513Z,7.7
2024-02-26T12:47:45.091Z,7.8
2024-02-26T12:48:47.516Z,7.8
2024-02-26T12:49:50.597Z,7.8
2024-02-26T12:50:53.437Z,7.8
2024-02-26T12:51:55.370Z,7.8
2024-02-26T12:52:56.896Z,7.8
2024-02-26T12:53:58.792Z,7.9
2024-02-26T12:55:01.093Z,7.9
2024-02-26T12:56:04.736Z,7.9
2024-02-26T12:57:10.250Z,7.9
2024-02-26T12:58:12.475Z,7.9
2024-02-26T12:59:14.305Z,7.9
2024-02-26T13:00:16.143Z,7.9
2024-02-26T13:01:18.464Z,7.9
2024-02-26T13:02:20.582Z,7.9
2024-02-26T13:03:23.212Z,7.9
2024-02-26T13:04:25.604Z,7.9
2024-02-26T13:05:27.807Z,7.9
2024-02-26T13:06:30.294Z,7.9
2024-02-26T13:07:32.560Z,7.9
2024-02-26T13:08:34.069Z,8
2024-02-26T13:09:35.839Z,8
2024-02-26T13:10:38.327Z,8
2024-02-26T13:11:39.930Z,8
2024-02-26T13:12:42.071Z,8
2024-02-26T13:13:43.626Z,8
2024-02-26T13:14:45.352Z,8
2024-02-26T13:15:47.180Z,8.1
2024-02-26T13:16:48.739Z,8.1
2024-02-26T13:17:50.559Z,8.1
2024-02-26T13:18:54.156Z,8
2024-02-26T13:19:57.237Z,8
2024-02-26T13:20:59.415Z,8
2024-02-26T13:22:01.423Z,8
2024-02-26T13:23:03.049Z,8
2024-02-26T13:24:04.917Z,8
2024-02-26T13:25:07.078Z,8.1
2024-02-26T13:26:09.083Z,8.1
2024-02-26T13:27:11.049Z,8.1
2024-02-26T13:28:13.364Z,8.1
2024-02-26T13:29:15.373Z,8.1
2024-02-26T13:30:17.369Z,8.1
2024-02-26T13:31:19.569Z,8.1
2024-02-26T13:32:21.048Z,8.1
2024-02-26T13:33:22.851Z,8.1
2024-02-26T13:34:25.894Z,8.2
2024-02-26T13:35:28.356Z,8.2
2024-02-26T13:36:30.089Z,8.2
2024-02-26T13:37:32.473Z,8.2
2024-02-26T13:38:34.063Z,8.1
2024-02-26T13:39:42.057Z,8.1
2024-02-26T13:40:44.726Z,8.1
2024-02-26T13:41:46.778Z,8.1
2024-02-26T13:42:48.922Z,8.1
2024-02-26T13:43:51.217Z,8.1
2024-02-26T13:44:52.910Z,8.1
2024-02-26T13:45:55.127Z,8.1
2024-02-26T13:46:57.207Z,8.1
2024-02-26T13:47:58.958Z,8.1
2024-02-26T13:49:01.425Z,8.1
2024-02-26T13:50:04.375Z,8.1
2024-02-26T13:51:06.660Z,8.1
2024-02-26T13:52:08.528Z,8.1
2024-02-26T13:53:10.087Z,8.1
2024-02-26T13:54:11.755Z,8.1
2024-02-26T13:55:14.050Z,8.1
2024-02-26T13:56:15.833Z,8.1
2024-02-26T13:57:18.021Z,8.1
2024-02-26T13:58:20.043Z,8.1
2024-02-26T13:59:21.878Z,8.1
2024-02-26T14:00:23.629Z,8.1
2024-02-26T14:01:25.747Z,8.1
2024-02-26T14:02:28.084Z,8.1
2024-02-26T14:03:29.793Z,8.1
2024-02-26T14:04:32.210Z,8.1
2024-02-26T14:05:34.344Z,8.1
2024-02-26T14:06:36.352Z,8.1
2024-02-26T14:07:39.259Z,8.1
2024-02-26T14:08:42.293Z,8.2
2024-02-26T14:09:50.735Z,8.2
2024-02-26T14:10:53.009Z,8.2
2024-02-26T14:11:55.419Z,8.2
2024-02-26T14:12:57.407Z,8.2
2024-02-26T14:13:58.882Z,8.2
2024-02-26T14:15:00.875Z,8.2
2024-02-26T14:16:02.929Z,8.2
2024-02-26T14:17:04.489Z,8.2
2024-02-26T14:18:06.495Z,8.1
2024-02-26T14:19:13.134Z,8.1
2024-02-26T14:20:18.441Z,8.1
2024-02-26T14:21:20.564Z,8.1
2024-02-26T14:22:22.728Z,8.1
2024-02-26T14:23:24.233Z,8.1